createdAt,value
2022-08-07T00:00:41.160Z,97.9
2022-08-07T00:01:50.308Z,97.16
2022-08-07T00:02:59.481Z,98.63
2022-08-07T00:04:08.654Z,99.36
2022-08-07T00:05:17.839Z,99.12
2022-08-07T00:06:26.998Z,99.6
2022-08-07T00:07:36.167Z,99.36
2022-08-07T00:08:45.355Z,100.58
2022-08-07T00:09:54.514Z,99.6
2022-08-07T00:11:03.713Z,98.38
2022-08-07T00:12:12.850Z,100.83
2022-08-07T00:13:22.029Z,101.07
2022-08-07T00:14:30.240Z,98.38
2022-08-07T00:15:39.388Z,99.36
2022-08-07T00:16:47.590Z,101.07
2022-08-07T00:17:55.784Z,99.12
2022-08-07T00:19:04.947Z,100.34
2022-08-07T00:21:22.319Z,99.12
2022-08-07T00:22:30.505Z,97.65
2022-08-07T00:23:38.702Z,98.14
2022-08-07T00:24:47.887Z,98.38
2022-08-07T00:25:57.058Z,97.9
2022-08-07T00:27:06.221Z,97.16
2022-08-07T00:28:15.392Z,97.9
2022-08-07T00:29:24.558Z,97.41
2022-08-07T00:30:33.738Z,98.87
2022-08-07T00:31:42.931Z,99.85
2022-08-07T00:32:52.084Z,99.12
2022-08-07T00:34:01.248Z,99.12
2022-08-07T00:35:10.433Z,98.63
2022-08-07T00:36:19.592Z,99.6
2022-08-07T00:37:28.767Z,96.43
2022-08-07T00:38:36.983Z,97.9
2022-08-07T00:39:46.135Z,100.09
2022-08-07T00:40:55.310Z,99.12
2022-08-07T00:42:04.492Z,99.85
2022-08-07T00:43:13.651Z,98.87
2022-08-07T00:44:22.833Z,97.16
2022-08-07T00:45:31.995Z,96.43
2022-08-07T00:46:41.180Z,96.67
2022-08-07T00:47:50.352Z,97.41
2022-08-07T00:48:58.539Z,98.87
2022-08-07T00:50:07.716Z,96.92
2022-08-07T00:51:16.873Z,94.97
2022-08-07T00:52:26.067Z,95.45
2022-08-07T00:53:35.224Z,95.94
2022-08-07T00:54:44.422Z,96.67
2022-08-07T00:55:53.574Z,94.48
2022-08-07T00:57:02.746Z,94.23
2022-08-07T00:58:11.916Z,93.5
2022-08-07T00:59:21.099Z,93.75
2022-08-07T01:00:30.269Z,96.43
2022-08-07T01:01:39.420Z,93.75
2022-08-07T01:02:48.650Z,92.04
2022-08-07T01:03:56.795Z,90.57
2022-08-07T01:05:05.964Z,92.28
2022-08-07T01:06:15.162Z,90.82
2022-08-07T01:07:24.323Z,90.08
2022-08-07T01:08:32.522Z,91.3
2022-08-07T01:09:40.699Z,89.59
2022-08-07T01:10:49.886Z,88.62
2022-08-07T01:11:59.040Z,85.69
2022-08-07T01:13:08.239Z,85.93
2022-08-07T01:14:17.375Z,85.44
2022-08-07T01:15:26.564Z,84.71
2022-08-07T01:16:35.723Z,83.74
2022-08-07T01:17:44.891Z,83.74
2022-08-07T01:18:54.079Z,83.25
2022-08-07T01:20:03.248Z,83
2022-08-07T01:21:12.423Z,83.98
2022-08-07T01:22:21.589Z,83
2022-08-07T01:23:30.791Z,83.49
2022-08-07T01:24:38.980Z,83
2022-08-07T01:25:47.160Z,82.51
2022-08-07T01:26:56.316Z,80.07
2022-08-07T01:28:05.518Z,79.83
2022-08-07T01:29:14.688Z,81.78
2022-08-07T01:30:23.844Z,79.83
2022-08-07T01:31:33.024Z,79.83
2022-08-07T01:32:42.195Z,80.56
2022-08-07T01:33:51.371Z,81.54
2022-08-07T01:35:00.545Z,82.03
2022-08-07T01:36:09.732Z,81.54
2022-08-07T01:37:18.892Z,82.03
2022-08-07T01:38:28.055Z,81.54
2022-08-07T01:39:37.216Z,81.78
2022-08-07T01:40:45.407Z,81.05
2022-08-07T01:41:54.591Z,83
2022-08-07T01:43:03.800Z,81.54
2022-08-07T01:44:12.946Z,82.51
2022-08-07T01:45:22.095Z,83.74
2022-08-07T01:46:31.268Z,83.74
2022-08-07T01:47:40.443Z,84.47
2022-08-07T01:48:49.612Z,83.49
2022-08-07T01:49:58.792Z,85.2
2022-08-07T01:51:07.961Z,85.44
2022-08-07T01:52:17.133Z,85.69
2022-08-07T01:53:26.307Z,86.66
2022-08-07T01:54:35.476Z,88.62
2022-08-07T01:55:43.665Z,89.59
2022-08-07T01:56:52.847Z,90.08
2022-08-07T01:58:02.013Z,90.57
2022-08-07T01:59:11.197Z,91.3
2022-08-07T02:00:19.395Z,91.3
2022-08-07T02:01:27.568Z,92.28
2022-08-07T02:02:36.742Z,93.75
2022-08-07T02:03:44.939Z,92.28
2022-08-07T02:04:53.128Z,93.01
2022-08-07T02:06:02.292Z,93.26
2022-08-07T02:07:11.493Z,94.48
2022-08-07T02:08:20.639Z,94.48
2022-08-07T02:09:29.807Z,96.19
2022-08-07T02:10:39.010Z,94.97
2022-08-07T02:11:48.162Z,95.21
2022-08-07T02:12:57.329Z,95.7
2022-08-07T02:14:06.502Z,94.72
2022-08-07T02:15:15.673Z,95.21
2022-08-07T02:16:24.849Z,94.48
2022-08-07T02:17:34.018Z,94.97
2022-08-07T02:18:43.196Z,97.9
2022-08-07T02:19:51.383Z,95.94
2022-08-07T02:21:00.569Z,95.21
2022-08-07T02:22:09.727Z,97.65
2022-08-07T02:23:18.918Z,96.67
2022-08-07T02:24:28.069Z,95.94
2022-08-07T02:25:37.250Z,96.43
2022-08-07T02:26:46.429Z,92.28
2022-08-07T02:27:55.606Z,93.01
2022-08-07T02:29:04.784Z,94.23
2022-08-07T02:30:13.933Z,91.3
2022-08-07T02:31:23.133Z,91.3
2022-08-07T02:32:32.303Z,90.82
2022-08-07T02:33:41.447Z,91.55
2022-08-07T02:34:49.664Z,89.59
2022-08-07T02:35:57.844Z,87.15
2022-08-07T02:37:07.022Z,90.57
2022-08-07T02:38:15.208Z,88.13
2022-08-07T02:39:24.389Z,90.33
2022-08-07T02:40:32.572Z,88.13
2022-08-07T02:41:41.745Z,88.62
2022-08-07T02:42:50.911Z,88.62
2022-08-07T02:44:00.122Z,88.13
2022-08-07T02:45:09.257Z,86.91
2022-08-07T02:46:18.427Z,85.44
2022-08-07T02:47:27.616Z,87.15
2022-08-07T02:48:36.793Z,87.64
2022-08-07T02:49:45.950Z,86.91
2022-08-07T02:50:55.131Z,86.91
2022-08-07T02:52:04.314Z,86.18
2022-08-07T02:53:13.483Z,87.64
2022-08-07T02:54:22.638Z,87.64
2022-08-07T02:55:30.834Z,87.4
2022-08-07T02:56:40.001Z,85.93
2022-08-07T02:57:49.177Z,86.91
2022-08-07T02:58:58.361Z,86.91
2022-08-07T03:00:07.524Z,86.91
2022-08-07T03:01:16.693Z,85.44
2022-08-07T03:02:25.882Z,85.93
2022-08-07T03:03:35.035Z,85.44
2022-08-07T03:04:44.235Z,84.71
2022-08-07T03:05:53.391Z,85.93
2022-08-07T03:07:02.556Z,86.18
2022-08-07T03:08:11.721Z,86.42
2022-08-07T03:09:20.905Z,85.2
2022-08-07T03:10:29.126Z,84.47
2022-08-07T03:11:38.265Z,87.64
2022-08-07T03:12:47.452Z,84.71
2022-08-07T03:13:56.605Z,85.44
2022-08-07T03:15:05.781Z,84.47
2022-08-07T03:16:14.975Z,84.22
2022-08-07T03:17:24.131Z,84.96
2022-08-07T03:18:33.297Z,85.69
2022-08-07T03:19:42.475Z,83.98
2022-08-07T03:20:51.644Z,84.96
2022-08-07T03:22:00.811Z,84.22
2022-08-07T03:23:10.009Z,84.96
2022-08-07T03:24:19.164Z,87.64
2022-08-07T03:25:27.374Z,83.74
2022-08-07T03:26:36.529Z,84.96
2022-08-07T03:27:45.702Z,84.47
2022-08-07T03:28:54.887Z,83.49
2022-08-07T03:30:04.052Z,84.47
2022-08-07T03:31:13.207Z,83.25
2022-08-07T03:32:22.392Z,82.76
2022-08-07T03:33:31.568Z,83.49
2022-08-07T03:34:40.737Z,82.03
2022-08-07T03:35:49.908Z,82.03
2022-08-07T03:36:59.091Z,81.29
2022-08-07T03:38:08.261Z,82.51
2022-08-07T03:39:17.427Z,83.74
2022-08-07T03:40:25.622Z,83.74
2022-08-07T03:41:34.782Z,83.49
2022-08-07T03:42:43.962Z,83.98
2022-08-07T03:43:53.128Z,81.78
2022-08-07T03:45:02.310Z,82.51
2022-08-07T03:46:11.480Z,83.49
2022-08-07T03:47:20.650Z,83
2022-08-07T03:48:29.821Z,84.22
2022-08-07T03:49:38.993Z,86.91
2022-08-07T03:50:48.165Z,84.47
2022-08-07T03:51:57.347Z,87.64
2022-08-07T03:53:06.512Z,89.35
2022-08-07T03:54:15.694Z,90.82
2022-08-07T03:55:23.881Z,91.06
2022-08-07T03:56:33.044Z,93.01
2022-08-07T03:57:42.218Z,96.19
2022-08-07T03:58:51.400Z,96.92
2022-08-07T04:00:00.578Z,94.97
2022-08-07T04:01:09.747Z,95.7
2022-08-07T04:02:18.938Z,95.21
2022-08-07T04:03:28.110Z,96.92
2022-08-07T04:04:37.280Z,99.6
2022-08-07T04:05:46.435Z,99.6
2022-08-07T04:06:55.634Z,98.63
2022-08-07T04:08:04.775Z,99.36
2022-08-07T04:09:13.955Z,98.63
2022-08-07T04:10:22.161Z,100.58
2022-08-07T04:11:31.325Z,97.41
2022-08-07T04:12:40.505Z,96.43
2022-08-07T04:13:49.659Z,98.63
2022-08-07T04:14:58.849Z,96.67
2022-08-07T04:16:08.003Z,98.14
2022-08-07T04:17:17.184Z,96.67
2022-08-07T04:18:26.356Z,95.45
2022-08-07T04:19:35.520Z,96.92
2022-08-07T04:20:44.699Z,96.19
2022-08-07T04:21:53.879Z,95.94
2022-08-07T04:23:03.047Z,96.43
2022-08-07T04:24:12.204Z,97.16
2022-08-07T04:25:20.402Z,95.94
2022-08-07T04:26:29.581Z,96.19
2022-08-07T04:27:38.750Z,97.16
2022-08-07T04:28:47.916Z,95.7
2022-08-07T04:29:57.101Z,93.26
2022-08-07T04:31:06.267Z,94.72
2022-08-07T04:32:15.437Z,94.97
2022-08-07T04:33:24.630Z,92.52
2022-08-07T04:34:33.780Z,92.77
2022-08-07T04:35:42.976Z,90.57
2022-08-07T04:36:52.182Z,91.06
2022-08-07T04:38:01.302Z,90.33
2022-08-07T04:39:10.479Z,89.11
2022-08-07T04:40:18.670Z,86.91
2022-08-07T04:41:27.865Z,92.04
2022-08-07T04:42:37.016Z,88.13
2022-08-07T04:43:46.192Z,87.89
2022-08-07T04:44:55.365Z,92.28
2022-08-07T04:46:04.536Z,86.91
2022-08-07T04:47:13.728Z,87.64
2022-08-07T04:48:22.883Z,88.62
2022-08-07T04:49:32.044Z,89.35
2022-08-07T04:50:41.228Z,90.33
2022-08-07T04:51:50.391Z,89.84
2022-08-07T04:52:59.572Z,90.08
2022-08-07T04:54:08.741Z,90.82
2022-08-07T04:55:16.927Z,87.4
2022-08-07T04:56:26.108Z,88.37
2022-08-07T04:57:35.279Z,88.37
2022-08-07T04:58:44.466Z,88.62
2022-08-07T04:59:53.632Z,87.64
2022-08-07T05:01:02.806Z,85.69
2022-08-07T05:02:11.968Z,85.69
2022-08-07T05:03:21.157Z,85.69
2022-08-07T05:04:30.339Z,86.18
2022-08-07T05:05:39.486Z,86.42
2022-08-07T05:06:48.670Z,86.18
2022-08-07T05:07:57.854Z,84.71
2022-08-07T05:09:07.015Z,85.44
2022-08-07T05:10:15.199Z,84.71
2022-08-07T05:11:24.374Z,84.71
2022-08-07T05:12:33.546Z,84.47
2022-08-07T05:13:42.720Z,83.98
2022-08-07T05:14:51.883Z,82.76
2022-08-07T05:16:01.054Z,83.25
2022-08-07T05:17:10.249Z,83.25
2022-08-07T05:18:19.409Z,81.54
2022-08-07T05:19:28.570Z,81.29
2022-08-07T05:20:37.769Z,80.56
2022-08-07T05:21:46.925Z,81.78
2022-08-07T05:22:56.105Z,82.03
2022-08-07T05:24:05.311Z,82.03
2022-08-07T05:25:13.450Z,82.27
2022-08-07T05:26:22.623Z,81.29
2022-08-07T05:27:30.820Z,83.25
2022-08-07T05:28:39.020Z,80.56
2022-08-07T05:29:48.193Z,80.07
2022-08-07T05:30:56.382Z,80.81
2022-08-07T05:32:04.580Z,81.29
2022-08-07T05:33:13.744Z,79.83
2022-08-07T05:34:22.961Z,80.56
2022-08-07T05:35:32.080Z,81.29
2022-08-07T05:36:41.264Z,80.56
2022-08-07T05:37:50.435Z,80.32
2022-08-07T05:38:59.599Z,80.32
2022-08-07T05:40:08.765Z,81.29
2022-08-07T05:41:17.943Z,79.58
2022-08-07T05:42:27.111Z,79.34
2022-08-07T05:43:36.279Z,79.58
2022-08-07T05:44:45.476Z,81.05
2022-08-07T05:45:54.641Z,79.83
2022-08-07T05:47:02.832Z,80.81
2022-08-07T05:48:12.021Z,79.1
2022-08-07T05:49:21.173Z,79.83
2022-08-07T05:50:30.334Z,109.86
2022-08-07T05:51:39.527Z,79.1
2022-08-07T05:52:48.700Z,78.12
2022-08-07T05:53:57.863Z,78.36
2022-08-07T05:55:07.046Z,77.88
2022-08-07T05:56:16.208Z,79.1
2022-08-07T05:57:25.382Z,80.07
2022-08-07T05:58:34.549Z,80.32
2022-08-07T05:59:43.744Z,80.56
2022-08-07T06:00:52.905Z,81.29
2022-08-07T06:02:01.090Z,81.78
2022-08-07T06:03:10.267Z,81.54
2022-08-07T06:04:19.449Z,81.54
2022-08-07T06:05:28.611Z,84.96
2022-08-07T06:06:37.783Z,83.98
2022-08-07T06:07:46.939Z,84.71
2022-08-07T06:08:56.139Z,88.13
2022-08-07T06:10:05.317Z,90.08
2022-08-07T06:11:14.467Z,91.55
2022-08-07T06:12:23.643Z,91.3
2022-08-07T06:13:32.809Z,94.97
2022-08-07T06:14:41.992Z,94.23
2022-08-07T06:15:51.156Z,96.67
2022-08-07T06:16:59.362Z,96.67
2022-08-07T06:18:08.543Z,96.67
2022-08-07T06:19:17.693Z,96.43
2022-08-07T06:20:26.882Z,97.65
2022-08-07T06:21:36.038Z,95.7
2022-08-07T06:22:45.196Z,94.72
2022-08-07T06:23:54.376Z,95.45
2022-08-07T06:25:03.548Z,95.7
2022-08-07T06:26:12.719Z,96.19
2022-08-07T06:27:21.897Z,96.19
2022-08-07T06:28:31.065Z,96.19
2022-08-07T06:29:40.266Z,94.48
2022-08-07T06:30:49.410Z,95.7
2022-08-07T06:31:57.612Z,94.23
2022-08-07T06:33:06.760Z,95.45
2022-08-07T06:34:15.940Z,97.16
2022-08-07T06:35:25.110Z,97.16
2022-08-07T06:36:34.289Z,94.97
2022-08-07T06:37:43.457Z,96.67
2022-08-07T06:38:52.646Z,98.14
2022-08-07T06:40:01.812Z,94.97
2022-08-07T06:41:10.997Z,93.01
2022-08-07T06:42:20.144Z,95.94
2022-08-07T06:43:29.311Z,94.23
2022-08-07T06:44:38.500Z,94.23
2022-08-07T06:45:47.678Z,92.28
2022-08-07T06:46:55.848Z,91.55
2022-08-07T06:48:05.042Z,92.28
2022-08-07T06:49:14.227Z,90.33
2022-08-07T06:50:23.405Z,89.59
2022-08-07T06:51:32.546Z,85.44
2022-08-07T06:52:41.712Z,88.37
2022-08-07T06:53:50.898Z,87.15
2022-08-07T06:55:00.082Z,86.91
2022-08-07T06:56:09.252Z,87.64
2022-08-07T06:57:18.413Z,85.44
2022-08-07T06:58:27.593Z,86.18
2022-08-07T06:59:36.753Z,84.71
2022-08-07T07:00:45.950Z,85.44
2022-08-07T07:01:54.129Z,84.96
2022-08-07T07:03:03.284Z,86.18
2022-08-07T07:04:12.461Z,83.98
2022-08-07T07:05:21.634Z,83.49
2022-08-07T07:06:30.824Z,84.71
2022-08-07T07:07:39.979Z,86.18
2022-08-07T07:08:49.156Z,85.44
2022-08-07T07:09:58.320Z,84.71
2022-08-07T07:11:07.498Z,86.91
2022-08-07T07:12:16.672Z,85.2
2022-08-07T07:13:25.850Z,85.44
2022-08-07T07:14:35.033Z,84.47
2022-08-07T07:15:44.192Z,84.71
2022-08-07T07:16:52.386Z,84.47
2022-08-07T07:18:01.560Z,85.2
2022-08-07T07:19:10.716Z,85.2
2022-08-07T07:20:19.895Z,83.49
2022-08-07T07:21:29.083Z,85.2
2022-08-07T07:22:38.250Z,84.71
2022-08-07T07:23:47.410Z,84.71
2022-08-07T07:24:56.593Z,84.47
2022-08-07T07:26:05.766Z,82.51
2022-08-07T07:27:14.923Z,83.74
2022-08-07T07:28:24.124Z,84.22
2022-08-07T07:29:33.277Z,84.47
2022-08-07T07:30:42.437Z,84.71
2022-08-07T07:31:50.639Z,84.71
2022-08-07T07:32:59.808Z,84.47
2022-08-07T07:34:08.967Z,86.91
2022-08-07T07:35:18.155Z,83.98
2022-08-07T07:36:27.328Z,85.69
2022-08-07T07:37:36.488Z,83.74
2022-08-07T07:38:45.673Z,85.44
2022-08-07T07:39:54.834Z,86.66
2022-08-07T07:41:04.007Z,87.89
2022-08-07T07:42:13.190Z,85.2
2022-08-07T07:43:22.363Z,87.64
2022-08-07T07:44:31.527Z,86.42
2022-08-07T07:45:40.698Z,87.15
2022-08-07T07:46:48.907Z,87.64
2022-08-07T07:47:58.070Z,85.69
2022-08-07T07:49:07.240Z,86.91
2022-08-07T07:50:16.412Z,87.64
2022-08-07T07:51:25.596Z,89.59
2022-08-07T07:52:34.789Z,89.11
2022-08-07T07:53:43.929Z,88.86
2022-08-07T07:54:53.088Z,88.86
2022-08-07T07:56:02.265Z,91.79
2022-08-07T07:57:11.443Z,90.82
2022-08-07T07:58:20.601Z,93.5
2022-08-07T07:59:29.775Z,93.99
2022-08-07T08:00:38.964Z,93.5
2022-08-07T08:01:47.143Z,95.45
2022-08-07T08:02:56.320Z,95.45
2022-08-07T08:04:05.544Z,96.92
2022-08-07T08:05:14.663Z,94.72
2022-08-07T08:06:23.861Z,95.45
2022-08-07T08:07:33.015Z,95.21
2022-08-07T08:08:42.169Z,95.94
2022-08-07T08:09:51.349Z,96.67
2022-08-07T08:11:00.551Z,97.9
2022-08-07T08:12:09.703Z,94.97
2022-08-07T08:13:18.867Z,97.16
2022-08-07T08:14:28.045Z,97.16
2022-08-07T08:15:37.230Z,96.19
2022-08-07T08:16:45.424Z,97.16
2022-08-07T08:17:54.588Z,97.16
2022-08-07T08:19:03.749Z,100.09
2022-08-07T08:20:12.915Z,98.14
2022-08-07T08:21:22.091Z,97.9
2022-08-07T08:22:31.262Z,97.41
2022-08-07T08:23:40.446Z,97.41
2022-08-07T08:24:49.614Z,97.41
2022-08-07T08:25:58.798Z,98.63
2022-08-07T08:27:07.954Z,98.14
2022-08-07T08:28:17.145Z,96.43
2022-08-07T08:29:26.312Z,97.9
2022-08-07T08:30:35.471Z,98.38
2022-08-07T08:31:43.676Z,95.21
2022-08-07T08:32:52.836Z,97.9
2022-08-07T08:34:02.024Z,95.21
2022-08-07T08:35:11.186Z,98.14
2022-08-07T08:36:20.354Z,98.63
2022-08-07T08:37:29.537Z,100.34
2022-08-07T08:38:38.718Z,97.41
2022-08-07T08:39:47.869Z,96.67
2022-08-07T08:40:57.078Z,97.41
2022-08-07T08:42:06.221Z,96.19
2022-08-07T08:43:15.388Z,94.48
2022-08-07T08:44:24.564Z,97.41
2022-08-07T08:45:33.735Z,97.65
2022-08-07T08:46:41.940Z,95.21
2022-08-07T08:47:51.101Z,97.41
2022-08-07T08:49:00.286Z,96.67
2022-08-07T08:50:09.462Z,97.41
2022-08-07T08:51:18.616Z,97.41
2022-08-07T08:52:27.790Z,95.45
2022-08-07T08:53:36.957Z,96.19
2022-08-07T08:54:46.171Z,94.72
2022-08-07T08:55:55.303Z,96.19
2022-08-07T08:57:04.497Z,97.41
2022-08-07T08:58:13.659Z,96.43
2022-08-07T08:59:22.832Z,96.92
2022-08-07T09:00:31.989Z,97.16
2022-08-07T09:01:41.164Z,96.19
2022-08-07T09:02:49.369Z,96.92
2022-08-07T09:03:58.549Z,96.92
2022-08-07T09:05:07.703Z,95.21
2022-08-07T09:06:16.895Z,94.48
2022-08-07T09:07:26.071Z,93.75
2022-08-07T09:08:35.215Z,94.23
2022-08-07T09:09:44.399Z,95.45
2022-08-07T09:10:53.592Z,95.21
2022-08-07T09:12:02.740Z,96.67
2022-08-07T09:13:11.938Z,97.41
2022-08-07T09:14:21.094Z,97.41
2022-08-07T09:15:30.258Z,98.38
2022-08-07T09:16:39.432Z,95.21
2022-08-07T09:17:47.613Z,99.6
2022-08-07T09:18:56.788Z,96.43
2022-08-07T09:20:05.964Z,99.6
2022-08-07T09:21:15.138Z,97.41
2022-08-07T09:22:24.302Z,101.07
2022-08-07T09:23:33.485Z,99.6
2022-08-07T09:24:42.688Z,97.9
2022-08-07T09:27:00.998Z,100.58
2022-08-07T09:28:10.182Z,101.07
2022-08-07T09:29:19.338Z,100.58
2022-08-07T09:30:28.515Z,102.29
2022-08-07T09:31:37.689Z,99.85
2022-08-07T09:32:45.889Z,100.83
2022-08-07T09:33:55.059Z,101.31
2022-08-07T09:35:04.222Z,101.07
2022-08-07T09:36:13.410Z,101.8
2022-08-07T09:37:22.582Z,100.83
2022-08-07T09:38:31.742Z,101.07
2022-08-07T09:39:40.906Z,101.31
2022-08-07T09:40:50.079Z,101.07
2022-08-07T09:41:59.267Z,99.85
2022-08-07T09:43:08.449Z,99.6
2022-08-07T09:44:17.613Z,102.05
2022-08-07T09:45:26.772Z,100.09
2022-08-07T09:46:35.944Z,101.07
2022-08-07T09:47:44.143Z,99.85
2022-08-07T09:48:53.315Z,102.53
2022-08-07T09:50:02.490Z,98.63
2022-08-07T09:51:11.662Z,102.05
2022-08-07T09:53:29.994Z,98.63
2022-08-07T09:54:39.164Z,100.09
2022-08-07T09:55:48.362Z,103.02
2022-08-07T09:56:57.518Z,99.6
2022-08-07T09:58:06.697Z,101.31
2022-08-07T09:59:15.853Z,101.07
2022-08-07T10:00:25.022Z,101.8
2022-08-07T10:01:34.201Z,101.07
2022-08-07T10:02:42.378Z,101.8
2022-08-07T10:03:51.561Z,97.41
2022-08-07T10:05:00.723Z,99.12
2022-08-07T10:06:09.933Z,98.87
2022-08-07T10:07:19.085Z,99.85
2022-08-07T10:08:28.258Z,100.83
2022-08-07T10:09:37.418Z,101.8
2022-08-07T10:10:46.600Z,100.34
2022-08-07T10:11:55.773Z,103.02
2022-08-07T10:13:04.940Z,98.87
2022-08-07T10:14:14.104Z,100.09
2022-08-07T10:15:23.280Z,100.58
2022-08-07T10:16:32.441Z,99.36
2022-08-07T10:17:40.653Z,99.36
2022-08-07T10:18:49.825Z,98.63
2022-08-07T10:19:58.984Z,100.58
2022-08-07T10:21:08.177Z,98.63
2022-08-07T10:22:17.335Z,99.36
2022-08-07T10:23:26.507Z,99.36
2022-08-07T10:24:35.677Z,102.53
2022-08-07T10:25:44.845Z,99.36
2022-08-07T10:26:54.048Z,100.09
2022-08-07T10:28:03.204Z,100.58
2022-08-07T10:29:12.362Z,100.58
2022-08-07T10:30:21.544Z,98.87
2022-08-07T10:31:30.734Z,101.8
2022-08-07T10:32:38.904Z,101.07
2022-08-07T10:33:48.070Z,100.34
2022-08-07T10:34:57.247Z,97.9
2022-08-07T10:36:06.413Z,99.12
2022-08-07T10:37:15.614Z,97.9
2022-08-07T10:38:24.759Z,99.12
2022-08-07T10:39:33.941Z,99.6
2022-08-07T10:40:43.120Z,97.41
2022-08-07T10:41:52.308Z,100.34
2022-08-07T10:43:01.491Z,99.12
2022-08-07T10:44:10.638Z,97.65
2022-08-07T10:45:19.819Z,99.6
2022-08-07T10:46:28.980Z,100.09
2022-08-07T10:47:37.176Z,100.58
2022-08-07T10:48:46.333Z,100.09
2022-08-07T10:49:55.534Z,101.56
2022-08-07T10:51:04.709Z,100.34
2022-08-07T10:52:13.879Z,99.12
2022-08-07T10:53:23.027Z,100.09
2022-08-07T10:54:32.192Z,97.9
2022-08-07T10:55:41.396Z,97.16
2022-08-07T10:56:50.545Z,100.58
2022-08-07T10:57:59.721Z,98.14
2022-08-07T10:59:08.935Z,101.07
2022-08-07T11:00:18.064Z,99.85
2022-08-07T11:01:27.234Z,97.9
2022-08-07T11:02:35.441Z,101.07
2022-08-07T11:03:44.611Z,101.31
2022-08-07T11:04:53.774Z,99.85
2022-08-07T11:06:02.943Z,99.6
2022-08-07T11:07:12.124Z,100.83
2022-08-07T11:08:21.295Z,98.63
2022-08-07T11:09:30.467Z,99.6
2022-08-07T11:11:48.809Z,100.09
2022-08-07T11:12:57.982Z,97.9
2022-08-07T11:14:07.151Z,98.63
2022-08-07T11:15:16.317Z,99.36
2022-08-07T11:16:25.507Z,99.85
2022-08-07T11:17:33.685Z,97.16
2022-08-07T11:18:42.849Z,101.8
2022-08-07T11:21:01.197Z,106.68
2022-08-07T11:22:10.400Z,108.39
2022-08-07T11:23:19.554Z,106.68
2022-08-07T11:24:28.727Z,106.44
2022-08-07T11:25:37.908Z,104.73
2022-08-07T11:26:47.084Z,102.53
2022-08-07T11:27:56.244Z,99.36
2022-08-07T11:29:05.412Z,96.67
2022-08-07T11:30:14.587Z,93.75
2022-08-07T11:31:23.760Z,90.33
2022-08-07T11:32:31.951Z,90.57
2022-08-07T11:33:41.130Z,90.57
2022-08-07T11:34:50.309Z,89.11
2022-08-07T11:35:59.461Z,86.18
2022-08-07T11:37:08.641Z,88.13
2022-08-07T11:38:17.835Z,88.62
2022-08-07T11:39:26.970Z,90.57
2022-08-07T11:40:36.148Z,90.82
2022-08-07T11:41:45.329Z,98.14
2022-08-07T11:42:54.512Z,93.01
2022-08-07T11:44:03.664Z,93.99
2022-08-07T11:45:12.864Z,96.67
2022-08-07T11:46:22.019Z,95.45
2022-08-07T11:47:30.220Z,95.7
2022-08-07T11:48:39.400Z,95.21
2022-08-07T11:49:48.539Z,96.19
2022-08-07T11:50:57.741Z,97.41
2022-08-07T11:52:06.907Z,97.65
2022-08-07T11:53:16.095Z,98.38
2022-08-07T11:54:25.242Z,99.36
2022-08-07T11:55:34.420Z,95.21
2022-08-07T11:56:43.601Z,98.14
2022-08-07T11:57:52.789Z,99.12
2022-08-07T11:59:01.948Z,95.45
2022-08-07T12:00:11.097Z,97.9
2022-08-07T12:01:20.294Z,98.87
2022-08-07T12:02:28.468Z,97.65
2022-08-07T12:03:37.628Z,98.14
2022-08-07T12:04:46.831Z,100.09
2022-08-07T12:05:55.993Z,98.63
2022-08-07T12:07:05.155Z,99.36
2022-08-07T12:08:14.325Z,99.85
2022-08-07T12:09:23.493Z,101.31
2022-08-07T12:10:32.672Z,101.07
2022-08-07T12:11:41.846Z,100.58
2022-08-07T12:12:51.051Z,98.38
2022-08-07T12:14:00.201Z,99.6
2022-08-07T12:15:09.378Z,97.16
2022-08-07T12:16:18.537Z,97.9
2022-08-07T12:17:26.730Z,97.41
2022-08-07T12:18:35.908Z,99.6
2022-08-07T12:19:45.096Z,101.31
2022-08-07T12:20:54.227Z,99.85
2022-08-07T12:22:03.420Z,105.22
2022-08-07T12:23:11.600Z,105.22
2022-08-07T12:24:20.766Z,102.05
2022-08-07T12:25:29.959Z,99.85
2022-08-07T12:26:39.115Z,101.56
2022-08-07T12:27:48.288Z,99.85
2022-08-07T12:28:57.472Z,97.9
2022-08-07T12:30:06.637Z,96.43
2022-08-07T12:31:15.802Z,99.6
2022-08-07T12:32:24.981Z,98.14
2022-08-07T12:33:34.163Z,96.92
2022-08-07T12:34:43.352Z,98.63
2022-08-07T12:35:52.494Z,99.85
2022-08-07T12:37:01.673Z,97.9
2022-08-07T12:38:09.867Z,96.92
2022-08-07T12:39:19.028Z,101.07
2022-08-07T12:40:28.214Z,98.87
2022-08-07T12:41:37.386Z,101.07
2022-08-07T12:42:46.569Z,99.36
2022-08-07T12:43:55.738Z,100.58
2022-08-07T12:45:04.908Z,99.36
2022-08-07T12:46:14.077Z,96.92
2022-08-07T12:47:23.260Z,97.65
2022-08-07T12:48:32.426Z,100.09
2022-08-07T12:49:41.591Z,98.63
2022-08-07T12:50:50.773Z,97.41
2022-08-07T12:51:59.940Z,97.41
2022-08-07T12:53:08.146Z,97.41
2022-08-07T12:54:17.286Z,96.92
2022-08-07T12:55:26.459Z,97.16
2022-08-07T12:56:35.648Z,97.65
2022-08-07T12:57:44.823Z,98.63
2022-08-07T12:58:54.004Z,97.65
2022-08-07T13:00:03.149Z,94.48
2022-08-07T13:01:12.322Z,95.21
2022-08-07T13:03:30.677Z,94.97
2022-08-07T13:04:39.851Z,97.9
2022-08-07T13:05:49.015Z,93.99
2022-08-07T13:06:58.181Z,95.21
2022-08-07T13:09:15.552Z,92.28
2022-08-07T13:10:24.722Z,92.28
2022-08-07T13:11:33.903Z,93.26
2022-08-07T13:12:43.066Z,91.79
2022-08-07T13:13:52.266Z,93.99
2022-08-07T13:15:01.425Z,92.28
2022-08-07T13:16:10.581Z,91.79
2022-08-07T13:17:19.770Z,92.28
2022-08-07T13:18:28.936Z,93.01
2022-08-07T13:19:38.106Z,93.26
2022-08-07T13:20:47.306Z,96.43
2022-08-07T13:21:56.451Z,92.28
2022-08-07T13:23:04.639Z,93.01
2022-08-07T13:24:13.832Z,95.94
2022-08-07T13:25:22.983Z,95.45
2022-08-07T13:26:32.160Z,93.99
2022-08-07T13:27:41.335Z,95.7
2022-08-07T13:28:50.516Z,94.97
2022-08-07T13:29:59.704Z,95.94
2022-08-07T13:31:08.844Z,97.16
2022-08-07T13:32:18.024Z,96.43
2022-08-07T13:33:27.196Z,96.92
2022-08-07T13:34:36.367Z,97.9
2022-08-07T13:35:45.541Z,97.9
2022-08-07T13:36:54.725Z,99.12
2022-08-07T13:38:02.922Z,96.67
2022-08-07T13:39:12.078Z,99.85
2022-08-07T13:40:21.261Z,98.87
2022-08-07T13:41:30.429Z,98.87
2022-08-07T13:42:39.608Z,99.85
2022-08-07T13:43:48.752Z,96.67
2022-08-07T13:44:57.944Z,97.16
2022-08-07T13:46:07.110Z,97.41
2022-08-07T13:47:16.295Z,99.36
2022-08-07T13:48:25.450Z,95.94
2022-08-07T13:49:34.625Z,98.63
2022-08-07T13:50:43.816Z,99.85
2022-08-07T13:51:52.971Z,96.92
2022-08-07T13:53:01.183Z,97.41
2022-08-07T13:54:10.327Z,100.09
2022-08-07T13:55:19.527Z,96.19
2022-08-07T13:56:28.681Z,98.14
2022-08-07T13:57:37.859Z,97.9
2022-08-07T13:58:47.019Z,99.36
2022-08-07T13:59:56.194Z,97.65
2022-08-07T14:01:05.369Z,97.16
2022-08-07T14:02:14.559Z,97.9
2022-08-07T14:03:23.710Z,96.19
2022-08-07T14:04:32.894Z,102.29
2022-08-07T14:05:42.062Z,97.41
2022-08-07T14:06:51.234Z,97.65
2022-08-07T14:07:59.412Z,99.36
2022-08-07T14:09:08.615Z,98.38
2022-08-07T14:10:17.764Z,97.41
2022-08-07T14:11:26.950Z,97.41
2022-08-07T14:12:36.128Z,98.14
2022-08-07T14:13:45.297Z,99.85
2022-08-07T14:14:54.449Z,96.67
2022-08-07T14:16:03.651Z,96.67
2022-08-07T14:17:12.812Z,97.16
2022-08-07T14:18:21.977Z,96.19
2022-08-07T14:19:31.143Z,95.21
2022-08-07T14:20:40.326Z,96.67
2022-08-07T14:21:49.498Z,96.19
2022-08-07T14:22:57.714Z,96.19
2022-08-07T14:24:06.860Z,98.38
2022-08-07T14:25:16.048Z,96.92
2022-08-07T14:26:25.203Z,96.19
2022-08-07T14:27:34.374Z,95.45
2022-08-07T14:28:43.552Z,96.19
2022-08-07T14:29:52.730Z,93.75
2022-08-07T14:31:01.931Z,94.72
2022-08-07T14:32:10.087Z,95.21
2022-08-07T14:33:18.284Z,96.67
2022-08-07T14:34:27.448Z,94.23
2022-08-07T14:35:36.629Z,95.7
2022-08-07T14:36:45.791Z,93.5
2022-08-07T14:37:54.967Z,96.19
2022-08-07T14:39:04.159Z,92.52
2022-08-07T14:40:13.309Z,93.99
2022-08-07T14:41:22.486Z,94.23
2022-08-07T14:42:31.662Z,94.23
2022-08-07T14:43:39.874Z,92.52
2022-08-07T14:44:48.059Z,93.99
2022-08-07T14:45:57.229Z,94.97
2022-08-07T14:47:06.397Z,92.28
2022-08-07T14:48:15.563Z,93.01
2022-08-07T14:49:24.730Z,96.43
2022-08-07T14:50:33.938Z,92.28
2022-08-07T14:51:43.086Z,92.77
2022-08-07T14:52:52.270Z,93.99
2022-08-07T14:54:01.427Z,96.19
2022-08-07T14:55:10.597Z,95.45
2022-08-07T14:56:19.766Z,93.75
2022-08-07T14:57:28.939Z,93.5
2022-08-07T14:58:38.121Z,93.26